Time;durP1;ratioP1;P1;durP2;ratioP2;P2;SDS_P1;SDS_P2;PMS_P1;PMS_P2;Temp;Humidity;BMP_temperature;BMP_pressure;BME280_temperature;BME280_humidity;BME280_pressure;Samples;Min_cycle;Max_cycle;Signal;HPM_P1;HPM_P2
2022/05/13 00:00:04;;;;;;;13.77;2.80;;;;;;;10.52;70.45;101770.03;4931694;29;20032;-89
2022/05/13 00:02:30;;;;;;;13.27;3.45;;;;;;;10.48;70.45;101765.06;4927110;29;20399;-89
2022/05/13 00:04:55;;;;;;;11.50;3.28;;;;;;;10.42;71.13;101765.41;4927260;29;20023;-89
2022/05/13 00:07:21;;;;;;;14.43;3.13;;;;;;;10.40;70.96;101756.72;4930688;29;20028;-90
2022/05/13 00:10:00;;;;;;;8.95;2.92;;;;;;;10.37;71.34;101755.13;4931036;29;20035;-89
2022/05/13 00:12:32;;;;;;;9.50;3.28;;;;;;;10.33;71.74;101761.50;4932546;29;20019;-89
2022/05/13 00:15:00;;;;;;;11.73;3.33;;;;;;;10.28;71.32;101760.94;4932031;29;20501;-89
2022/05/13 00:17:26;;;;;;;8.80;3.30;;;;;;;10.25;72.04;101754.06;4930624;29;20384;-89
2022/05/13 00:19:51;;;;;;;10.63;3.00;;;;;;;10.22;71.92;101753.41;4931043;29;20036;-89
2022/05/13 00:22:18;;;;;;;10.63;3.03;;;;;;;10.19;72.18;101762.28;4931138;29;20035;-89
2022/05/13 00:24:44;;;;;;;10.23;3.65;;;;;;;10.11;72.55;101761.03;4914568;29;20027;-89
2022/05/13 00:27:10;;;;;;;11.75;3.72;;;;;;;10.07;72.79;101759.53;4931053;29;20416;-90
2022/05/13 00:29:35;;;;;;;9.63;3.28;;;;;;;10.09;72.96;101762.91;4928170;29;20087;-89
2022/05/13 00:32:01;;;;;;;13.73;3.30;;;;;;;10.04;72.92;101756.13;4931176;29;20028;-90
2022/05/13 00:34:26;;;;;;;13.70;3.50;;;;;;;9.95;73.69;101754.00;4931055;29;20028;-90
2022/05/13 00:36:52;;;;;;;10.68;3.70;;;;;;;9.99;73.83;101759.94;4932127;29;20028;-90
2022/05/13 00:39:19;;;;;;;15.52;3.63;;;;;;;9.96;73.97;101754.84;4930544;29;20076;-90
2022/05/13 00:41:45;;;;;;;13.38;4.05;;;;;;;9.94;74.28;101757.56;4931181;29;20038;-90
2022/05/13 00:44:10;;;;;;;11.50;3.85;;;;;;;9.93;74.33;101758.50;4931695;29;20024;-89
2022/05/13 00:46:36;;;;;;;10.82;3.30;;;;;;;9.92;74.86;101756.81;4931987;29;20152;-90
2022/05/13 00:49:06;;;;;;;11.40;3.90;;;;;;;9.88;74.89;101755.28;4931200;29;20491;-89
2022/05/13 00:51:36;;;;;;;12.23;4.00;;;;;;;9.85;75.21;101755.47;4915513;29;20449;-90
2022/05/13 00:54:04;;;;;;;8.75;3.92;;;;;;;9.83;74.88;101757.34;4916811;29;20472;-90
2022/05/13 00:56:30;;;;;;;13.80;3.78;;;;;;;9.82;74.58;101754.78;4916661;29;20381;-91
2022/05/13 00:58:58;;;;;;;14.23;3.55;;;;;;;9.77;73.97;101748.97;4933305;29;20553;-90
2022/05/13 01:01:24;;;;;;;7.65;3.40;;;;;;;9.75;73.64;101749.03;4935441;29;20393;-90
2022/05/13 01:03:50;;;;;;;11.15;3.47;;;;;;;9.72;73.91;101755.31;4917546;29;20412;-90
2022/05/13 01:06:22;;;;;;;10.77;3.40;;;;;;;9.69;73.62;101759.91;4935668;29;20083;-90
2022/05/13 01:08:48;;;;;;;11.23;2.70;;;;;;;9.67;73.58;101752.09;4934225;29;20042;-89
2022/05/13 01:11:20;;;;;;;8.77;2.70;;;;;;;9.69;72.98;101759.91;4918428;29;20036;-88
2022/05/13 01:13:51;;;;;;;9.98;2.70;;;;;;;9.64;72.83;101756.69;4917255;29;20038;-88
2022/05/13 01:16:19;;;;;;;9.65;2.55;;;;;;;9.61;72.85;101749.81;4913928;29;20028;-88
2022/05/13 01:18:44;;;;;;;8.68;2.50;;;;;;;9.61;72.81;101752.44;4916052;29;20021;-88
2022/05/13 01:21:14;;;;;;;7.78;2.50;;;;;;;9.61;72.34;101752.44;4915734;29;20024;-88
2022/05/13 01:23:42;;;;;;;6.85;2.40;;;;;;;9.59;72.38;101748.19;4915080;29;20035;-88
2022/05/13 01:26:11;;;;;;;10.10;2.75;;;;;;;9.58;72.39;101749.13;4914380;29;20032;-88
2022/05/13 01:28:44;;;;;;;11.45;2.50;;;;;;;9.57;72.22;101747.41;4927034;29;20043;-88
2022/05/13 01:31:12;;;;;;;;;;;;;;;9.64;70.22;101744.41;4912125;29;20070;-88
2022/05/13 01:33:39;;;;;;;10.13;2.67;;;;;;;9.55;72.42;101746.66;4933477;29;19965;-88
2022/05/13 01:36:06;;;;;;;6.82;2.25;;;;;;;9.53;72.20;101749.38;4934556;29;20024;-88
2022/05/13 01:38:35;;;;;;;6.90;2.40;;;;;;;9.52;72.29;101759.97;4916219;29;20036;-88
2022/05/13 01:41:02;;;;;;;5.93;2.15;;;;;;;9.52;72.38;101759.97;4934245;29;20106;-88
2022/05/13 01:43:28;;;;;;;7.10;2.35;;;;;;;9.53;72.22;101748.53;4934124;29;20023;-88
2022/05/13 01:45:53;;;;;;;7.97;2.13;;;;;;;9.53;72.34;101754.63;4915522;29;20079;-87
2022/05/13 01:48:19;;;;;;;6.70;2.55;;;;;;;9.55;72.27;101751.91;4933481;29;20492;-85
2022/05/13 01:50:45;;;;;;;7.68;2.08;;;;;;;9.60;72.42;101760.38;4934109;29;20031;-85
2022/05/13 01:53:11;;;;;;;9.85;2.38;;;;;;;9.61;72.06;101754.22;4932887;29;20035;-85
2022/05/13 01:55:42;;;;;;;6.63;2.40;;;;;;;9.61;71.73;101755.06;4934139;29;20280;-85
2022/05/13 01:58:08;;;;;;;9.98;2.30;;;;;;;9.60;72.05;101758.59;4915283;29;20397;-90
2022/05/13 02:00:33;;;;;;;9.80;2.53;;;;;;;9.60;71.93;101765.63;4929713;29;20039;-90
2022/05/13 02:05:42;;;;;;;8.60;2.10;;;;;;;9.64;72.12;101759.31;4921846;29;20035;-90
2022/05/13 02:08:08;;;;;;;6.25;1.77;;;;;;;9.67;72.07;101751.25;4932641;29;20468;-90
2022/05/13 02:10:34;;;;;;;7.70;2.15;;;;;;;9.66;71.65;101760.91;4931882;29;20032;-90
2022/05/13 02:12:59;;;;;;;6.45;2.70;;;;;;;9.66;72.50;101754.81;4915473;29;20170;-90
2022/05/13 02:15:24;;;;;;;6.85;2.03;;;;;;;9.65;72.43;101759.22;4933412;29;20039;-90
2022/05/13 02:17:50;;;;;;;10.60;2.22;;;;;;;9.68;72.62;101752.94;4933532;29;20511;-90
2022/05/13 02:20:15;;;;;;;9.40;2.22;;;;;;;9.68;72.70;101742.44;4931776;29;20051;-90
2022/05/13 02:22:40;;;;;;;7.85;2.40;;;;;;;9.69;72.48;101752.03;4933384;29;20039;-90
2022/05/13 02:25:08;;;;;;;9.00;2.40;;;;;;;9.70;72.70;101751.09;4932257;29;20038;-90
2022/05/13 02:27:34;;;;;;;8.43;2.40;;;;;;;9.69;72.92;101749.38;4932688;29;20031;-90
2022/05/13 02:29:59;;;;;;;8.15;2.10;;;;;;;9.66;73.12;101753.03;4932766;29;20419;-90
2022/05/13 02:32:24;;;;;;;10.05;2.67;;;;;;;9.69;73.22;101749.38;4932998;29;20111;-90
2022/05/13 02:34:50;;;;;;;9.05;2.33;;;;;;;9.71;72.74;101747.53;4914662;29;20078;-90
2022/05/13 02:37:15;;;;;;;7.95;1.98;;;;;;;9.70;73.31;101745.81;4915832;29;20122;-90
2022/05/13 02:39:40;;;;;;;9.38;2.20;;;;;;;9.72;73.14;101750.06;4931996;29;20559;-90
2022/05/13 02:42:06;;;;;;;12.02;2.95;;;;;;;9.72;73.54;101750.06;4915040;29;20055;-90
2022/05/13 02:44:31;;;;;;;8.27;2.42;;;;;;;9.74;73.60;101753.44;4916538;29;20092;-90
2022/05/13 02:46:57;;;;;;;8.77;2.58;;;;;;;9.76;73.49;101745.47;4932002;29;20106;-90
2022/05/13 02:49:22;;;;;;;11.82;2.47;;;;;;;9.78;74.00;101742.75;4932269;29;20848;-90
2022/05/13 02:51:49;;;;;;;9.90;2.60;;;;;;;9.81;73.88;101747.84;4916181;29;20142;-90
2022/05/13 02:54:16;;;;;;;6.80;2.47;;;;;;;9.82;74.22;101737.25;4932045;29;20063;-90
2022/05/13 02:56:41;;;;;;;9.98;2.92;;;;;;;9.84;74.49;101742.41;4904576;29;20127;-90
2022/05/13 02:59:07;;;;;;;11.98;2.95;;;;;;;9.83;74.64;101741.56;4928026;29;20131;-90
2022/05/13 03:01:32;;;;;;;13.60;3.03;;;;;;;9.86;74.80;101741.41;4932553;29;20027;-90
2022/05/13 03:03:58;;;;;;;9.10;2.85;;;;;;;9.88;75.10;101744.78;4932874;29;20095;-90
2022/05/13 03:06:24;;;;;;;10.23;3.00;;;;;;;9.90;75.31;101742.91;4932247;29;20035;-89
2022/05/13 03:08:50;;;;;;;13.48;3.88;;;;;;;9.90;75.55;101747.31;4920118;29;20048;-90
2022/05/13 03:11:16;;;;;;;9.75;3.00;;;;;;;9.92;75.66;101741.03;4931445;29;20054;-90
2022/05/13 03:13:41;;;;;;;9.10;3.45;;;;;;;9.93;75.72;101742.72;4914927;29;20039;-90
2022/05/13 03:16:18;;;;;;;14.52;3.63;;;;;;;9.96;76.11;101749.59;4931102;29;20436;-89
2022/05/13 03:18:44;;;;;;;10.93;3.50;;;;;;;9.98;75.88;101745.94;4932296;29;20034;-90
2022/05/13 03:21:10;;;;;;;9.57;3.13;;;;;;;10.01;76.47;101740.53;4931282;29;20030;-90
2022/05/13 03:23:36;;;;;;;12.63;3.30;;;;;;;10.03;76.22;101743.94;4931714;29;20027;-90
2022/05/13 03:26:01;;;;;;;11.80;3.72;;;;;;;10.03;76.37;101733.41;4932367;29;20488;-90
2022/05/13 03:28:27;;;;;;;11.23;3.55;;;;;;;10.04;76.18;101735.09;4909590;29;20473;-89
2022/05/13 03:30:52;;;;;;;11.32;3.33;;;;;;;10.07;76.38;101731.44;4914372;29;20028;-90
2022/05/13 03:33:19;;;;;;;14.13;3.45;;;;;;;10.07;76.10;101733.22;4924095;29;20046;-90
2022/05/13 03:35:45;;;;;;;14.60;3.58;;;;;;;10.04;76.60;101727.22;4930964;29;20040;-90
2022/05/13 03:38:10;;;;;;;14.50;3.80;;;;;;;10.02;76.56;101731.72;4931414;29;20028;-90
2022/05/13 03:40:36;;;;;;;12.50;3.42;;;;;;;10.00;76.20;101733.56;4931574;29;20633;-90
2022/05/13 03:43:05;;;;;;;12.05;3.72;;;;;;;9.98;76.77;101735.44;4931191;29;20051;-90
2022/05/13 03:45:32;;;;;;;10.52;3.58;;;;;;;9.98;76.77;101743.31;4930817;29;20042;-90
2022/05/13 03:47:58;;;;;;;13.05;4.18;;;;;;;9.98;77.15;101738.06;4931489;29;20023;-90
2022/05/13 03:50:24;;;;;;;10.18;3.28;;;;;;;9.97;76.88;101736.38;4915276;29;20107;-90
2022/05/13 03:52:49;;;;;;;13.70;4.18;;;;;;;9.97;77.47;101733.72;4914155;29;20035;-90
2022/05/13 03:55:14;;;;;;;14.25;4.40;;;;;;;9.92;77.24;101734.94;4915496;29;20079;-90
2022/05/13 03:57:40;;;;;;;10.27;3.90;;;;;;;9.93;77.33;101741.88;4913051;29;20062;-89
2022/05/13 04:00:07;;;;;;;13.52;4.13;;;;;;;9.89;77.72;101735.13;4929042;29;20039;-89
2022/05/13 04:02:33;;;;;;;12.10;4.07;;;;;;;9.88;77.74;101734.25;4937316;29;20042;-90
2022/05/13 04:10:26;;;;;;;11.63;4.25;;;;;;;9.86;77.92;101741.41;4931495;29;20514;-88
2022/05/13 04:18:19;;;;;;;16.45;4.15;;;;;;;9.85;78.13;101739.69;4931230;29;20043;-88
2022/05/13 04:20:47;;;;;;;12.63;3.95;;;;;;;9.87;78.09;101740.47;4914502;29;20032;-89
2022/05/13 04:23:12;;;;;;;16.25;4.50;;;;;;;9.86;78.29;101740.53;4930627;29;20469;-89
2022/05/13 04:25:38;;;;;;;14.38;4.25;;;;;;;9.86;78.53;101730.88;4914561;29;20135;-89
2022/05/13 04:28:06;;;;;;;11.50;4.25;;;;;;;9.88;78.31;101742.16;4928543;29;20028;-88
2022/05/13 04:30:31;;;;;;;14.45;4.68;;;;;;;9.86;78.75;101741.41;4918185;29;20036;-88
2022/05/13 04:32:57;;;;;;;15.57;4.47;;;;;;;9.89;78.62;101746.47;4933663;29;20411;-88
2022/05/13 04:35:22;;;;;;;12.90;4.63;;;;;;;9.90;78.65;101747.31;4917203;29;20035;-88
2022/05/13 04:37:47;;;;;;;13.88;4.50;;;;;;;9.91;78.70;101744.59;4934903;29;20027;-87
2022/05/13 04:40:13;;;;;;;17.65;4.78;;;;;;;9.92;78.91;101751.56;4934530;29;20113;-88
2022/05/13 04:42:51;;;;;;;12.98;4.40;;;;;;;9.95;78.96;101756.63;4935903;29;20035;-90
2022/05/13 04:45:23;;;;;;;17.05;4.85;;;;;;;9.98;78.76;101766.13;4934195;29;20039;-89
2022/05/13 04:50:33;;;;;;;13.35;5.10;;;;;;;10.07;78.21;101768.25;4926793;29;20043;-90
2022/05/13 04:52:58;;;;;;;15.80;5.35;;;;;;;10.10;78.86;101769.88;4926048;29;20289;-90
2022/05/13 04:55:25;;;;;;;17.00;4.93;;;;;;;10.13;78.67;101774.94;4923237;29;20024;-89
2022/05/13 04:57:51;;;;;;;13.93;4.60;;;;;;;10.17;78.46;101773.84;4909441;29;20258;-89
2022/05/13 05:00:16;;;;;;;12.73;5.00;;;;;;;10.22;78.76;101775.28;4925975;29;20067;-90
2022/05/13 05:02:42;;;;;;;16.65;4.72;;;;;;;10.25;78.47;101777.75;4932690;29;20422;-89
2022/05/13 05:05:07;;;;;;;17.40;4.50;;;;;;;10.32;78.31;101781.72;4918597;29;20539;-90
2022/05/13 05:07:32;;;;;;;14.25;4.40;;;;;;;10.33;78.39;101782.56;4917016;29;20032;-90
2022/05/13 05:09:58;;;;;;;19.45;4.95;;;;;;;10.36;78.68;101787.63;4915146;29;20110;-89
2022/05/13 05:12:23;;;;;;;11.05;4.18;;;;;;;10.43;78.18;101785.53;4917529;29;20393;-88
2022/05/13 05:14:49;;;;;;;19.25;5.10;;;;;;;10.46;77.82;101782.72;4934532;29;20038;-89
2022/05/13 05:17:14;;;;;;;18.13;4.80;;;;;;;10.51;77.94;101792.03;4934132;29;20043;-89
2022/05/13 05:19:42;;;;;;;13.98;4.90;;;;;;;10.56;77.65;101791.75;4917706;29;20369;-90
2022/05/13 05:22:08;;;;;;;12.48;4.55;;;;;;;10.62;77.27;101797.50;4916550;29;20488;-89
2022/05/13 05:24:33;;;;;;;13.63;4.82;;;;;;;10.71;77.54;101797.88;4933408;29;20024;-90
2022/05/13 05:26:58;;;;;;;15.77;5.05;;;;;;;10.75;77.44;101794.13;4933451;29;20356;-89
2022/05/13 05:29:24;;;;;;;13.80;4.28;;;;;;;10.82;77.14;101806.00;4934297;29;20079;-89
2022/05/13 05:31:49;;;;;;;15.63;4.88;;;;;;;10.87;77.42;101807.44;4934076;29;20087;-89
2022/05/13 05:34:16;;;;;;;15.63;4.53;;;;;;;10.96;77.14;101813.94;4934609;29;20039;-89
2022/05/13 05:36:42;;;;;;;19.70;4.63;;;;;;;11.05;76.50;101818.63;4916173;29;20163;-90
2022/05/13 05:39:07;;;;;;;13.65;5.03;;;;;;;11.12;76.78;101821.75;4916319;29;20527;-90
2022/05/13 05:41:33;;;;;;;13.63;4.47;;;;;;;11.15;76.42;101822.41;4916353;29;20023;-89
2022/05/13 05:43:58;;;;;;;13.05;4.40;;;;;;;11.22;76.17;101815.84;4932059;29;20429;-89
2022/05/13 05:46:23;;;;;;;12.88;4.10;;;;;;;11.28;75.93;101828.63;4932584;29;20067;-89
2022/05/13 05:48:49;;;;;;;15.48;4.45;;;;;;;11.36;75.93;101829.94;4916803;29;20051;-89
2022/05/13 05:51:14;;;;;;;14.27;4.90;;;;;;;11.43;75.60;101833.91;4933217;29;20503;-89
2022/05/13 05:59:11;;;;;;;13.07;4.68;;;;;;;11.61;74.85;101844.16;4932253;29;20058;-89
2022/05/13 06:01:36;;;;;;;15.18;4.82;;;;;;;11.69;75.00;101846.31;4933558;29;20039;-89
2022/05/13 06:04:02;;;;;;;15.52;4.82;;;;;;;11.79;74.95;101846.59;4933903;29;20080;-89
2022/05/13 06:06:28;;;;;;;16.23;4.80;;;;;;;11.83;74.38;101848.94;4933245;29;20035;-89
2022/05/13 06:08:55;;;;;;;17.00;5.13;;;;;;;11.92;74.45;101850.16;4933963;29;20389;-89
2022/05/13 06:11:23;;;;;;;16.52;5.03;;;;;;;12.01;74.05;101846.06;4916001;29;20028;-89
2022/05/13 06:13:51;;;;;;;14.57;4.97;;;;;;;12.11;74.00;101855.13;4934213;29;20027;-90
2022/05/13 06:16:20;;;;;;;17.10;5.13;;;;;;;12.23;73.53;101856.97;4933983;29;20122;-89
2022/05/13 06:18:45;;;;;;;16.52;5.30;;;;;;;12.34;73.06;101859.75;4931906;29;20063;-90
2022/05/13 06:21:10;;;;;;;18.85;5.07;;;;;;;12.41;73.02;101858.41;4933890;29;20039;-88
2022/05/13 06:23:36;;;;;;;16.23;5.53;;;;;;;12.47;72.66;101860.66;4916845;29;20087;-87
2022/05/13 06:26:02;;;;;;;19.00;5.75;;;;;;;12.60;72.33;101862.47;4931680;29;20023;-88
2022/05/13 06:28:28;;;;;;;17.92;5.20;;;;;;;12.67;72.79;101864.59;4934207;29;20106;-88
2022/05/13 06:30:53;;;;;;;13.23;5.40;;;;;;;12.79;72.52;101865.56;4916080;29;20135;-88
2022/05/13 06:33:19;;;;;;;13.65;5.30;;;;;;;12.89;72.59;101869.31;4932813;29;20103;-87
2022/05/13 06:35:44;;;;;;;14.30;5.07;;;;;;;12.98;72.36;101873.97;4915599;29;20027;-89
2022/05/13 06:38:18;;;;;;;18.67;5.50;;;;;;;13.11;72.08;101871.31;4933270;29;20091;-88
2022/05/13 06:40:44;;;;;;;22.23;5.72;;;;;;;13.18;71.43;101878.75;4915825;29;20046;-89
2022/05/13 06:43:09;;;;;;;15.98;5.43;;;;;;;13.28;71.50;101870.22;4933837;29;20481;-86
2022/05/13 06:45:35;;;;;;;17.27;5.35;;;;;;;13.36;71.45;101875.81;4933775;29;20493;-87
2022/05/13 06:48:06;;;;;;;15.65;5.63;;;;;;;13.42;71.15;101870.94;4915447;29;20027;-87
2022/05/13 06:50:32;;;;;;;15.10;5.53;;;;;;;13.55;70.50;101876.22;4931858;29;20034;-87
2022/05/13 06:52:57;;;;;;;15.82;5.50;;;;;;;13.66;70.33;101878.97;4931975;29;20380;-87
2022/05/13 06:55:22;;;;;;;18.42;5.63;;;;;;;13.79;70.05;101877.16;4932509;29;20027;-87
2022/05/13 06:57:48;;;;;;;16.00;5.90;;;;;;;13.91;69.58;101879.88;4932715;29;20047;-87
2022/05/13 07:00:13;;;;;;;15.88;6.38;;;;;;;13.93;69.47;101885.88;4931632;29;20051;-87
2022/05/13 07:02:41;;;;;;;19.38;6.40;;;;;;;14.01;69.33;101886.22;4898816;29;20027;-87
2022/05/13 07:05:09;;;;;;;18.63;6.15;;;;;;;14.04;69.17;101893.94;4912190;29;20436;-87
2022/05/13 07:07:35;;;;;;;15.68;6.20;;;;;;;14.04;68.64;101886.00;4897318;29;20024;-87
2022/05/13 07:10:01;;;;;;;17.45;5.38;;;;;;;14.14;69.17;101881.72;4904126;29;20028;-87
2022/05/13 07:12:26;;;;;;;19.17;6.28;;;;;;;14.29;68.67;101883.25;4912417;29;20209;-87
2022/05/13 07:14:53;;;;;;;19.27;6.43;;;;;;;14.37;67.88;101878.22;4896225;29;20047;-87
2022/05/13 07:17:19;;;;;;;12.57;6.25;;;;;;;14.51;67.55;101881.72;4912540;29;20028;-86
2022/05/13 07:19:44;;;;;;;16.00;6.38;;;;;;;14.67;67.22;101888.38;4913900;29;20363;-87
2022/05/13 07:22:09;;;;;;;14.00;5.57;;;;;;;14.85;67.28;101880.03;4912815;29;20035;-87
2022/05/13 07:24:35;;;;;;;15.00;6.10;;;;;;;14.97;66.92;101877.28;4916724;29;20142;-89
2022/05/13 07:27:00;;;;;;;18.70;5.72;;;;;;;15.15;65.21;101872.38;4933289;29;20024;-89
2022/05/13 07:29:25;;;;;;;16.90;6.30;;;;;;;15.31;64.54;101887.97;4933083;29;20161;-89
2022/05/13 07:31:51;;;;;;;17.20;5.60;;;;;;;15.41;63.71;101883.63;4933081;29;20366;-89
2022/05/13 07:34:16;;;;;;;15.68;5.95;;;;;;;15.48;63.12;101889.31;4915963;29;20036;-89
2022/05/13 07:36:42;;;;;;;14.73;5.60;;;;;;;15.59;64.06;101890.19;4915001;29;20071;-88
2022/05/13 07:41:51;;;;;;;11.68;5.63;;;;;;;15.92;61.37;101889.31;4932029;29;20067;-89
2022/05/13 07:44:16;;;;;;;17.70;5.50;;;;;;;15.95;61.76;101889.06;4932258;29;20031;-89
2022/05/13 07:46:43;;;;;;;15.95;5.85;;;;;;;16.02;62.19;101896.59;4916148;29;20392;-90
2022/05/13 07:49:09;;;;;;;16.38;5.78;;;;;;;16.08;61.07;101899.59;4916411;29;20028;-89
2022/05/13 07:51:34;;;;;;;16.77;5.53;;;;;;;16.37;60.48;101899.00;4932708;29;20038;-89
2022/05/13 07:54:00;;;;;;;11.55;4.20;;;;;;;16.57;59.59;101898.25;4933296;29;20016;-89
2022/05/13 07:56:26;;;;;;;10.55;4.72;;;;;;;16.62;59.18;101896.03;4933582;29;20058;-89
2022/05/13 07:58:51;;;;;;;12.00;4.60;;;;;;;16.63;59.05;101897.72;4914157;29;20099;-89
2022/05/13 08:01:17;;;;;;;11.63;4.80;;;;;;;16.67;58.30;101907.16;4931695;29;20297;-89
2022/05/13 08:03:43;;;;;;;11.75;4.90;;;;;;;16.64;58.28;101906.53;4932386;29;20059;-87
2022/05/13 08:06:09;;;;;;;17.08;5.50;;;;;;;16.67;58.36;101904.50;4936242;29;20392;-87
2022/05/13 08:08:40;;;;;;;10.95;4.40;;;;;;;16.88;58.24;101905.41;4924842;29;20031;-87
2022/05/13 08:11:07;;;;;;;11.40;4.65;;;;;;;16.90;56.90;101915.91;4935370;29;20047;-87
2022/05/13 08:13:34;;;;;;;17.30;5.00;;;;;;;16.91;57.00;101913.09;4917290;29;20111;-87
2022/05/13 08:16:01;;;;;;;15.57;4.60;;;;;;;16.92;57.62;101901.50;4916684;29;20609;-87
2022/05/13 08:18:26;;;;;;;12.90;4.88;;;;;;;16.92;58.22;101916.59;4915956;29;20569;-87
2022/05/13 08:20:52;;;;;;;12.65;4.15;;;;;;;17.03;55.27;101923.69;4919204;29;20028;-87
2022/05/13 08:23:18;;;;;;;10.80;3.60;;;;;;;16.97;56.27;101924.19;4936031;29;20028;-87
2022/05/13 08:25:44;;;;;;;12.10;3.80;;;;;;;17.00;55.65;101926.59;4935414;29;20051;-87
2022/05/13 08:28:10;;;;;;;8.48;3.67;;;;;;;16.94;56.16;101917.31;4934655;29;20051;-87
2022/05/13 08:30:37;;;;;;;10.32;4.00;;;;;;;17.27;55.71;101924.28;4934466;29;20027;-87
2022/05/13 08:33:08;;;;;;;12.38;3.92;;;;;;;17.54;54.47;101913.06;4934939;29;20457;-87
2022/05/13 08:35:33;;;;;;;11.50;3.90;;;;;;;17.51;53.76;101924.81;4935831;29;20032;-87
2022/05/13 08:37:58;;;;;;;14.82;3.65;;;;;;;17.84;53.37;101915.75;4935155;29;20095;-87
2022/05/13 08:40:55;;;;;;;13.07;3.95;;;;;;;18.20;53.99;101917.97;4935249;29;20388;-87
2022/05/13 08:43:35;;;;;;;8.30;3.30;;;;;;;18.15;52.05;101913.91;4918508;29;20036;-87
2022/05/13 08:46:21;;;;;;;10.68;3.38;;;;;;;18.28;52.72;101912.81;4935225;29;20024;-87
2022/05/13 08:48:54;;;;;;;11.55;3.80;;;;;;;18.28;52.08;101915.47;4936085;29;20050;-87
2022/05/13 08:51:47;;;;;;;12.00;3.40;;;;;;;18.19;52.78;101926.94;4935895;29;20106;-87
2022/05/13 08:54:17;;;;;;;10.27;3.15;;;;;;;18.01;52.02;101916.97;4918350;29;20024;-88
2022/05/13 08:56:50;;;;;;;11.57;3.60;;;;;;;17.92;52.47;101930.22;4936174;29;20023;-87
2022/05/13 08:59:19;;;;;;;13.20;3.20;;;;;;;17.87;51.29;101919.13;4935686;29;20059;-87
2022/05/13 09:01:48;;;;;;;10.75;3.00;;;;;;;17.87;51.78;101925.31;4917576;29;20030;-87
2022/05/13 09:04:59;;;;;;;12.15;3.15;;;;;;;18.19;52.73;101925.13;4935466;29;20024;-87
2022/05/13 09:07:25;;;;;;;8.95;2.97;;;;;;;18.23;50.01;101925.69;4922370;29;20171;-87
2022/05/13 09:09:53;;;;;;;9.30;3.20;;;;;;;18.23;50.82;101920.38;4935625;29;20122;-87
2022/05/13 09:12:42;;;;;;;6.80;2.60;;;;;;;18.42;51.61;101918.59;4934061;29;20030;-87
2022/05/13 09:15:23;;;;;;;9.93;2.83;;;;;;;18.37;50.71;101914.63;4934263;29;20134;-87
2022/05/13 09:18:06;;;;;;;8.57;2.97;;;;;;;18.35;49.69;101922.78;4935194;29;20062;-87
2022/05/13 09:20:41;;;;;;;6.93;2.50;;;;;;;18.36;49.54;101926.28;4935729;29;20050;-87
2022/05/13 09:23:10;;;;;;;6.65;2.40;;;;;;;18.41;48.39;101924.03;4934184;29;20240;-87
2022/05/13 09:26:08;;;;;;;7.40;2.65;;;;;;;18.46;49.37;101927.16;4933578;29;20043;-87
2022/05/13 09:28:36;;;;;;;8.02;2.35;;;;;;;18.48;47.42;101925.19;4934444;29;20039;-87
2022/05/13 09:31:20;;;;;;;7.25;2.45;;;;;;;18.69;49.51;101933.09;4934138;29;20031;-86
2022/05/13 09:33:47;;;;;;;7.15;2.67;;;;;;;18.49;49.57;101932.22;4914356;29;20024;-87
2022/05/13 09:36:21;;;;;;;7.60;2.15;;;;;;;18.37;49.99;101928.81;4915094;29;20036;-87
2022/05/13 09:38:50;;;;;;;8.73;2.42;;;;;;;18.39;49.69;101926.00;4929999;29;20043;-87
2022/05/13 09:41:27;;;;;;;10.52;2.28;;;;;;;18.68;49.22;101932.25;4934440;29;20032;-88
2022/05/13 09:43:55;;;;;;;10.65;2.50;;;;;;;18.90;47.77;101931.13;4916222;29;20031;-87
2022/05/13 09:46:23;;;;;;;6.28;2.28;;;;;;;18.95;47.93;101934.22;4933570;29;20035;-87
2022/05/13 09:48:57;;;;;;;8.35;2.55;;;;;;;19.06;47.37;101935.88;4934350;29;20102;-87
2022/05/13 09:51:38;;;;;;;8.20;2.30;;;;;;;19.04;47.77;101940.53;4932931;29;20289;-87
2022/05/13 09:54:15;;;;;;;7.45;2.45;;;;;;;18.68;47.23;101934.91;4932497;29;20558;-88
2022/05/13 09:56:48;;;;;;;7.28;2.20;;;;;;;18.41;46.83;101934.69;4932157;29;20032;-87
2022/05/13 09:59:25;;;;;;;7.32;2.33;;;;;;;18.34;48.19;101936.22;4915999;29;20404;-87
2022/05/13 10:01:52;;;;;;;5.53;2.33;;;;;;;18.27;47.34;101938.59;4916703;29;20504;-87
2022/05/13 10:04:26;;;;;;;7.15;2.08;;;;;;;18.06;48.58;101941.38;4926535;29;20039;-87
2022/05/13 10:07:04;;;;;;;6.75;2.00;;;;;;;18.07;47.29;101943.06;4915434;29;20357;-87
2022/05/13 10:15:35;;;;;;;8.75;2.53;;;;;;;18.23;47.00;101944.34;4894161;29;20540;-87
2022/05/13 10:18:18;;;;;;;7.05;2.08;;;;;;;18.08;47.61;101954.53;4919300;29;20474;-87
2022/05/13 10:20:47;;;;;;;9.48;2.40;;;;;;;17.98;48.93;101953.66;4929348;29;20027;-87
2022/05/13 10:23:37;;;;;;;10.00;2.55;;;;;;;18.00;48.66;101949.03;4905510;29;20027;-87
2022/05/13 10:26:11;;;;;;;6.75;2.28;;;;;;;18.12;47.98;101945.31;4930060;29;20054;-87
2022/05/13 10:28:45;;;;;;;5.22;1.95;;;;;;;18.58;47.67;101942.03;4932026;29;20356;-86
2022/05/13 10:31:22;;;;;;;10.68;2.70;;;;;;;18.94;47.06;101937.88;4914800;29;20532;-88
2022/05/13 10:34:01;;;;;;;7.82;2.47;;;;;;;18.99;46.58;101942.78;4928347;29;20032;-88
2022/05/13 10:36:48;;;;;;;8.73;2.85;;;;;;;18.82;45.50;101944.34;4930361;29;20409;-87
2022/05/13 10:39:44;;;;;;;7.55;2.30;;;;;;;18.61;45.30;101947.09;4931558;29;20114;-87
2022/05/13 10:42:16;;;;;;;6.38;1.88;;;;;;;18.86;46.25;101935.06;4930194;29;20031;-87
2022/05/13 10:45:09;;;;;;;7.85;2.33;;;;;;;19.33;45.71;101936.00;4914700;29;20023;-87
2022/05/13 10:47:42;;;;;;;;;;;;;;;19.54;46.15;101948.31;4927650;29;20464;-87
2022/05/13 10:50:12;;;;;;;8.05;2.13;;;;;;;19.08;45.49;101944.59;4929493;29;20304;-86
2022/05/13 10:53:01;;;;;;;9.00;2.47;;;;;;;18.85;46.74;101937.88;4931503;29;20023;-86
2022/05/13 10:55:46;;;;;;;9.32;2.25;;;;;;;18.83;46.33;101948.69;4929747;29;20031;-87
2022/05/13 10:58:49;;;;;;;7.32;2.13;;;;;;;19.01;46.72;101938.16;4931497;29;20051;-87
2022/05/13 11:01:15;;;;;;;6.65;2.33;;;;;;;19.32;45.13;101953.00;4931470;29;20050;-86
2022/05/13 11:04:17;;;;;;;10.95;2.20;;;;;;;19.48;45.90;101944.38;4931964;29;20028;-86
2022/05/13 11:07:01;;;;;;;7.03;2.22;;;;;;;19.75;43.90;101935.63;4931418;29;20114;-86
2022/05/13 11:09:45;;;;;;;6.78;2.40;;;;;;;20.01;45.56;101939.31;4930893;29;20709;-87
2022/05/13 11:12:31;;;;;;;6.78;2.10;;;;;;;20.33;44.61;101932.66;4931801;29;20177;-87
2022/05/13 11:15:20;;;;;;;6.75;1.98;;;;;;;20.40;40.42;101943.59;4929129;29;20126;-86
2022/05/13 11:17:51;;;;;;;9.15;1.90;;;;;;;20.29;41.50;101942.78;4932712;29;20028;-88
2022/05/13 11:20:32;;;;;;;6.28;1.98;;;;;;;19.97;42.86;101939.72;4931817;29;20118;-88
2022/05/13 11:23:07;;;;;;;10.45;2.28;;;;;;;19.80;43.82;101945.88;4929572;29;20036;-86
2022/05/13 11:25:57;;;;;;;11.10;2.70;;;;;;;19.60;44.25;101943.25;4930726;29;20451;-87
2022/05/13 11:28:39;;;;;;;6.90;2.35;;;;;;;19.34;44.49;101948.34;4930423;29;20030;-86
2022/05/13 11:31:23;;;;;;;7.47;2.10;;;;;;;19.28;44.12;101956.09;4931363;29;20042;-86
2022/05/13 11:33:59;;;;;;;8.25;2.10;;;;;;;19.27;44.14;101955.25;4927750;29;20054;-86
2022/05/13 11:36:44;;;;;;;6.80;2.10;;;;;;;19.60;44.08;101945.06;4930511;29;20034;-86
2022/05/13 11:39:39;;;;;;;6.10;2.03;;;;;;;20.01;43.51;101936.66;4913974;29;20164;-87
2022/05/13 11:43:18;;;;;;;10.00;2.50;;;;;;;20.33;43.10;101938.84;4930121;29;20062;-87
2022/05/13 11:45:50;;;;;;;10.82;2.17;;;;;;;20.59;42.90;101938.97;4931305;29;20524;-88
2022/05/13 11:48:27;;;;;;;5.28;2.03;;;;;;;20.69;41.62;101938.06;4930784;29;20579;-88
2022/05/13 11:51:06;;;;;;;5.00;2.10;;;;;;;20.90;41.29;101930.56;4927193;29;20038;-88
2022/05/13 11:53:59;;;;;;;9.32;2.45;;;;;;;20.76;41.55;101942.63;4930202;29;20030;-89
2022/05/13 11:56:25;;;;;;;6.70;2.25;;;;;;;20.54;40.72;101940.44;4930075;29;20090;-88
2022/05/13 11:59:01;;;;;;;6.47;2.10;;;;;;;20.44;41.95;101947.69;4929973;29;20047;-88
2022/05/13 12:01:38;;;;;;;6.40;2.60;;;;;;;20.37;41.91;101947.38;4930842;29;20035;-88
2022/05/13 12:04:12;;;;;;;6.80;2.45;;;;;;;20.35;41.88;101946.69;4928869;29;20038;-88
2022/05/13 12:06:50;;;;;;;9.63;2.40;;;;;;;20.34;42.40;101945.84;4928501;29;20085;-90